createdAt,value
2023-05-13T00:02:45.887Z,10.70
2023-05-13T00:07:47.575Z,8.80
2023-05-13T00:12:49.154Z,9.80
2023-05-13T00:17:50.726Z,9.90
2023-05-13T00:22:52.842Z,7.90
2023-05-13T00:27:54.469Z,7.10
2023-05-13T00:32:56.257Z,9.90
2023-05-13T00:37:58.064Z,12.70
2023-05-13T00:42:59.599Z,9.40
2023-05-13T00:48:01.246Z,9.50
2023-05-13T00:53:04.109Z,8.50
2023-05-13T00:58:06.090Z,11.20
2023-05-13T01:03:15.628Z,8.10
2023-05-13T01:08:56.443Z,13.20
2023-05-13T01:14:03.143Z,9.40
2023-05-13T01:19:09.702Z,8.00
2023-05-13T01:24:11.542Z,10.00
2023-05-13T01:29:13.682Z,7.90
2023-05-13T01:34:15.540Z,10.60
2023-05-13T01:39:18.174Z,7.50
2023-05-13T01:44:19.768Z,11.80
2023-05-13T01:49:21.599Z,12.10
2023-05-13T01:54:23.267Z,13.20
2023-05-13T02:04:28.158Z,12.20
2023-05-13T02:09:29.768Z,12.60
2023-05-13T02:14:31.500Z,14.50
2023-05-13T02:24:34.857Z,9.70
2023-05-13T02:29:38.677Z,19.90
2023-05-13T02:34:40.448Z,10.90
2023-05-13T02:39:42.168Z,12.20
2023-05-13T02:44:44.115Z,8.70
2023-05-13T02:49:45.781Z,10.20
2023-05-13T02:54:49.651Z,11.30
2023-05-13T02:59:52.617Z,12.70
2023-05-13T03:04:54.487Z,12.00
2023-05-13T03:09:56.162Z,12.50
2023-05-13T03:14:57.780Z,12.70
2023-05-13T03:19:59.421Z,14.30
2023-05-13T03:25:01.187Z,13.00
2023-05-13T03:30:03.059Z,13.50
2023-05-13T03:35:04.834Z,12.00
2023-05-13T03:40:07.326Z,12.10
2023-05-13T03:45:09.821Z,12.20
2023-05-13T03:50:25.518Z,11.10
2023-05-13T03:55:27.311Z,11.30
2023-05-13T04:00:29.482Z,13.60
2023-05-13T04:05:31.256Z,14.80
2023-05-13T04:10:34.578Z,13.30
2023-05-13T04:15:36.244Z,13.90
2023-05-13T04:20:38.632Z,16.50
2023-05-13T04:25:41.158Z,14.10
2023-05-13T04:30:43.123Z,13.70
2023-05-13T04:35:44.880Z,19.00
2023-05-13T04:40:46.552Z,14.30
2023-05-13T04:45:48.614Z,11.60
2023-05-13T04:50:50.836Z,12.40
2023-05-13T04:55:54.546Z,11.40
2023-05-13T05:00:56.224Z,10.10
2023-05-13T05:05:57.907Z,10.90
2023-05-13T05:11:00.143Z,10.90
2023-05-13T05:16:01.973Z,10.70
2023-05-13T05:26:11.756Z,16.20
2023-05-13T05:31:14.571Z,13.00
2023-05-13T05:36:16.446Z,8.40
2023-05-13T05:41:18.131Z,8.40
2023-05-13T05:46:20.301Z,10.20
2023-05-13T05:51:21.945Z,9.40
2023-05-13T05:56:23.638Z,7.80
2023-05-13T06:01:27.874Z,7.20
2023-05-13T06:06:31.756Z,9.50
2023-05-13T06:11:33.684Z,10.40
2023-05-13T06:16:37.496Z,10.60
2023-05-13T06:26:40.855Z,11.00
2023-05-13T06:31:45.475Z,7.30
2023-05-13T06:36:48.601Z,8.50
2023-05-13T06:41:50.290Z,7.70
2023-05-13T06:46:52.090Z,8.40
2023-05-13T06:51:53.926Z,5.60
2023-05-13T06:56:55.703Z,10.70
2023-05-13T07:01:57.480Z,7.10
2023-05-13T07:12:00.753Z,3.70
2023-05-13T07:22:04.990Z,8.70
2023-05-13T07:27:06.781Z,7.30
2023-05-13T07:32:08.797Z,5.10
2023-05-13T07:37:10.550Z,13.00
2023-05-13T07:42:12.191Z,6.40
2023-05-13T07:47:16.432Z,6.90
2023-05-13T07:52:19.434Z,3.90
2023-05-13T07:57:21.836Z,7.60
2023-05-13T08:02:23.895Z,5.90
2023-05-13T08:07:26.200Z,7.20
2023-05-13T08:12:29.667Z,4.70
2023-05-13T08:17:35.432Z,6.40
2023-05-13T08:22:37.266Z,4.30
2023-05-13T08:27:38.930Z,6.60
2023-05-13T08:32:40.541Z,3.80
2023-05-13T08:37:42.382Z,4.40
2023-05-13T08:42:44.056Z,3.70
2023-05-13T08:47:55.945Z,5.30
2023-05-13T08:52:58.565Z,4.90
2023-05-13T08:58:00.347Z,6.40
2023-05-13T09:03:02.251Z,6.60
2023-05-13T09:08:07.412Z,6.50
2023-05-13T09:13:09.152Z,4.30
2023-05-13T09:18:11.206Z,4.50
2023-05-13T09:23:13.216Z,6.00
2023-05-13T09:28:15.528Z,8.50
2023-05-13T09:33:18.920Z,8.40
2023-05-13T09:38:24.723Z,15.20
2023-05-13T09:43:32.153Z,4.00
2023-05-13T09:48:34.020Z,4.60
2023-05-13T09:53:35.746Z,4.80
2023-05-13T09:58:37.730Z,5.40
2023-05-13T10:03:39.543Z,4.20
2023-05-13T10:08:44.152Z,6.40
2023-05-13T10:13:49.114Z,4.20
2023-05-13T10:18:50.909Z,4.30
2023-05-13T10:23:52.753Z,3.50
2023-05-13T10:28:54.320Z,4.60
2023-05-13T10:33:55.966Z,5.70
2023-05-13T10:39:03.916Z,4.50
2023-05-13T10:44:05.487Z,4.90
2023-05-13T10:49:07.156Z,4.40
2023-05-13T10:54:17.931Z,3.90
2023-05-13T10:59:21.557Z,3.60
2023-05-13T11:04:23.238Z,7.30
2023-05-13T11:09:27.900Z,5.60
2023-05-13T11:14:32.425Z,4.10
2023-05-13T11:19:45.463Z,8.00
2023-05-13T11:25:07.426Z,3.50
2023-05-13T11:30:29.506Z,3.30
2023-05-13T11:35:40.655Z,4.10
2023-05-13T11:40:42.331Z,3.20
2023-05-13T11:45:44.453Z,3.10
2023-05-13T11:50:50.714Z,5.70
2023-05-13T11:55:52.372Z,3.60
2023-05-13T12:00:54.762Z,5.20
2023-05-13T12:06:05.711Z,4.50
2023-05-13T12:11:07.526Z,4.50
2023-05-13T12:16:09.160Z,3.20
2023-05-13T12:21:15.804Z,3.60
2023-05-13T12:26:17.578Z,3.90
2023-05-13T12:31:19.477Z,6.50
2023-05-13T12:36:26.668Z,4.70
2023-05-13T12:41:50.799Z,3.10
2023-05-13T12:46:53.283Z,3.50
2023-05-13T12:51:55.012Z,4.10
2023-05-13T12:56:56.691Z,13.50
2023-05-13T13:01:58.379Z,3.10
2023-05-13T13:07:00.034Z,3.90
2023-05-13T13:12:01.726Z,7.50
2023-05-13T13:17:03.484Z,3.40
2023-05-13T13:22:05.674Z,4.50
2023-05-13T13:27:07.356Z,5.20
2023-05-13T13:32:09.157Z,5.70
2023-05-13T13:37:10.779Z,2.80
2023-05-13T13:42:12.574Z,12.40
2023-05-13T13:47:15.373Z,15.10
2023-05-13T13:52:17.560Z,6.90
2023-05-13T13:57:19.227Z,4.10
2023-05-13T14:02:24.772Z,6.00
2023-05-13T14:07:26.676Z,4.30
2023-05-13T14:12:28.546Z,4.20
2023-05-13T14:17:30.580Z,3.90
2023-05-13T14:22:32.297Z,5.00
2023-05-13T14:27:34.132Z,5.40
2023-05-13T14:32:35.828Z,4.90
2023-05-13T14:37:37.656Z,8.90
2023-05-13T14:42:39.524Z,2.30
2023-05-13T14:47:41.458Z,7.90
2023-05-13T14:52:43.181Z,4.20
2023-05-13T14:57:44.776Z,16.90
2023-05-13T15:02:46.421Z,5.80
2023-05-13T15:07:52.382Z,43.90
2023-05-13T15:12:54.045Z,5.80
2023-05-13T15:17:56.004Z,10.10
2023-05-13T15:22:57.814Z,6.40
2023-05-13T15:27:59.488Z,6.90
2023-05-13T15:33:01.275Z,4.90
2023-05-13T15:38:03.137Z,5.40
2023-05-13T15:43:04.791Z,4.30
2023-05-13T15:48:07.291Z,5.70
2023-05-13T15:53:09.032Z,4.00
2023-05-13T15:58:11.012Z,8.10
2023-05-13T16:03:13.132Z,4.50
2023-05-13T16:08:15.042Z,4.70
2023-05-13T16:13:16.909Z,4.50
2023-05-13T16:18:19.004Z,5.20
2023-05-13T16:23:20.969Z,7.70
2023-05-13T16:28:22.852Z,4.60
2023-05-13T16:33:24.671Z,5.90
2023-05-13T16:38:26.514Z,6.20
2023-05-13T16:43:28.401Z,8.00
2023-05-13T16:48:31.250Z,3.80
2023-05-13T16:53:36.128Z,4.90
2023-05-13T16:58:37.910Z,4.00
2023-05-13T17:03:39.776Z,6.50
2023-05-13T17:08:41.679Z,5.60
2023-05-13T17:13:43.874Z,6.30
2023-05-13T17:18:45.870Z,6.40
2023-05-13T17:23:47.707Z,11.50
2023-05-13T17:28:50.106Z,15.80
2023-05-13T17:33:52.048Z,14.90
2023-05-13T17:38:54.593Z,18.40
2023-05-13T17:43:56.387Z,14.80
2023-05-13T17:48:58.177Z,19.50
2023-05-13T17:53:59.904Z,21.50
2023-05-13T17:59:01.677Z,18.20
2023-05-13T18:04:03.460Z,19.50
2023-05-13T18:09:05.438Z,19.50
2023-05-13T18:14:07.208Z,21.30
2023-05-13T18:19:09.032Z,17.70
2023-05-13T18:24:11.074Z,19.90
2023-05-13T18:29:13.373Z,30.20
2023-05-13T18:34:15.108Z,41.10
2023-05-13T18:39:17.084Z,51.20
2023-05-13T18:44:18.741Z,50.60
2023-05-13T18:49:24.558Z,55.30
2023-05-13T18:54:26.336Z,50.30
2023-05-13T18:59:28.030Z,43.50
2023-05-13T19:09:32.886Z,37.80
2023-05-13T19:14:34.656Z,37.30
2023-05-13T19:19:36.450Z,33.70
2023-05-13T19:24:38.214Z,26.90
2023-05-13T19:34:41.562Z,42.10
2023-05-13T19:39:43.244Z,48.70
2023-05-13T19:44:45.082Z,43.20
2023-05-13T19:49:46.942Z,43.50
2023-05-13T19:59:50.126Z,24.10
2023-05-13T20:09:53.480Z,19.50
2023-05-13T20:14:55.359Z,14.10
2023-05-13T20:24:58.599Z,14.30
2023-05-13T20:30:00.347Z,13.60
2023-05-13T20:35:02.207Z,13.20
2023-05-13T20:45:06.994Z,12.20
2023-05-13T20:50:09.432Z,12.10
2023-05-13T20:55:12.338Z,10.00
2023-05-13T21:00:14.727Z,9.40
2023-05-13T21:05:16.510Z,11.00
2023-05-13T21:15:20.586Z,11.40
2023-05-13T21:20:24.957Z,10.00
2023-05-13T21:25:27.874Z,15.30
2023-05-13T21:35:31.349Z,13.30
2023-05-13T21:45:34.804Z,16.80
2023-05-13T21:50:37.084Z,14.50
2023-05-13T22:00:40.556Z,13.80
2023-05-13T22:05:42.415Z,11.90
2023-05-13T22:16:00.548Z,12.40
2023-05-13T22:21:02.247Z,13.60
2023-05-13T22:26:04.059Z,12.00
2023-05-13T22:36:07.617Z,12.20
2023-05-13T22:46:11.064Z,16.30
2023-05-13T22:51:12.939Z,16.40
2023-05-13T22:56:14.617Z,19.90
2023-05-13T23:01:16.446Z,27.30
2023-05-13T23:06:18.181Z,24.90
2023-05-13T23:11:19.846Z,29.10
2023-05-13T23:21:23.263Z,29.20
2023-05-13T23:31:28.112Z,29.70
2023-05-13T23:41:33.357Z,15.90
2023-05-13T23:46:35.142Z,14.70
2023-05-13T23:51:36.912Z,16.60
2023-05-13T23:56:38.584Z,10.30
